Station History

Weather Underground - logo

Station Historical Data
Daily Summary for October 29, 2017 Units:  English    Metric   Both
« Previous Day
Next Day »
Daily Weekly Monthly Yearly Custom
  High: Low: Average:
Temperature: 82.7 °F 51.6 °F 65.8 °F
Dew Point: 60.4 °F 48.8 °F 54.7 °F
Humidity: 92 % 40 % 71 %
Wind Speed: 3.5 mph 0.0 mph 0.4 mph
Wind Gust: 3.5 mph - -
Wind:- - West
Pressure: 29.87 in 29.75 in -
Precipitation: 0.00 in    
Historical Graphs
 
 
Tabular Data for October 29, 2017
Time Temperature Dew Point Pressure Wind Wind Speed Wind Gust Humidity Rainfall Rate (Hourly)
00:04 58.6 °F 54.1 °F 29.85 in Calm     85 % 0.00 in
00:09 58.6 °F 54.1 °F 29.85 in Calm     85 % 0.00 in
00:14 58.6 °F 54.1 °F 29.85 in Calm     85 % 0.00 in
00:19 58.6 °F 53.8 °F 29.85 in Calm     84 % 0.00 in
00:24 58.6 °F 53.8 °F 29.85 in Calm     84 % 0.00 in
00:29 58.4 °F 53.6 °F 29.85 in Calm     84 % 0.00 in
00:34 58.1 °F 53.3 °F 29.85 in Calm     84 % 0.00 in
00:39 58.0 °F 53.5 °F 29.85 in Calm     85 % 0.00 in
00:44 58.0 °F 53.8 °F 29.85 in Calm     86 % 0.00 in
00:49 58.0 °F 53.5 °F 29.85 in Calm     85 % 0.00 in
00:54 58.0 °F 53.5 °F 29.85 in Calm     85 % 0.00 in
00:59 58.0 °F 53.5 °F 29.85 in Calm     85 % 0.00 in
01:04 57.9 °F 53.4 °F 29.85 in Calm     85 % 0.00 in
01:09 57.4 °F 52.9 °F 29.85 in Calm     85 % 0.00 in
01:14 57.0 °F 53.2 °F 29.85 in Calm     87 % 0.00 in
01:19 56.8 °F 52.7 °F 29.85 in Calm     86 % 0.00 in
01:24 56.5 °F 52.4 °F 29.85 in Calm     86 % 0.00 in
01:29 56.3 °F 52.2 °F 29.86 in Calm     86 % 0.00 in
01:34 56.3 °F 52.2 °F 29.85 in Calm     86 % 0.00 in
01:39 56.6 °F 52.5 °F 29.85 in WNW 1.2 mph   86 % 0.00 in
01:44 56.9 °F 52.1 °F 29.85 in Calm     84 % 0.00 in
01:49 56.8 °F 52.3 °F 29.85 in Calm     85 % 0.00 in
01:54 56.5 °F 52.0 °F 29.85 in Calm     85 % 0.00 in
02:04 55.9 °F 51.8 °F 29.85 in Calm     86 % 0.00 in
02:09 55.7 °F 51.9 °F 29.85 in Calm     87 % 0.00 in
02:14 55.7 °F 51.9 °F 29.85 in Calm     87 % 0.00 in
02:19 55.4 °F 51.3 °F 29.86 in SSW 1.2 mph   86 % 0.00 in
02:24 54.8 °F 50.7 °F 29.86 in Calm     86 % 0.00 in
02:29 54.3 °F 50.5 °F 29.85 in Calm     87 % 0.00 in
02:34 54.2 °F 50.4 °F 29.85 in Calm     87 % 0.00 in
02:39 54.0 °F 50.5 °F 29.85 in Calm     88 % 0.00 in
02:44 54.1 °F 50.9 °F 29.85 in Calm     89 % 0.00 in
02:49 54.1 °F 51.2 °F 29.85 in Calm     90 % 0.00 in
02:54 54.1 °F 51.2 °F 29.85 in Calm     90 % 0.00 in
02:59 54.1 °F 51.2 °F 29.85 in Calm     90 % 0.00 in
03:04 54.3 °F 51.4 °F 29.85 in Calm     90 % 0.00 in
03:09 54.3 °F 51.4 °F 29.85 in Calm     90 % 0.00 in
03:14 54.6 °F 51.7 °F 29.85 in Calm     90 % 0.00 in
03:19 54.5 °F 51.3 °F 29.85 in Calm     89 % 0.00 in
03:24 54.4 °F 51.2 °F 29.85 in Calm     89 % 0.00 in
03:29 54.3 °F 51.1 °F 29.84 in Calm     89 % 0.00 in
03:34 54.2 °F 50.7 °F 29.84 in Calm     88 % 0.00 in
03:39 54.0 °F 50.5 °F 29.84 in Calm     88 % 0.00 in
03:44 54.0 °F 50.8 °F 29.84 in Calm     89 % 0.00 in
03:49 54.0 °F 50.8 °F 29.84 in Calm     89 % 0.00 in
03:54 54.0 °F 50.8 °F 29.84 in Calm     89 % 0.00 in
03:59 54.0 °F 50.8 °F 29.84 in Calm     89 % 0.00 in
04:04 54.1 °F 51.2 °F 29.84 in Calm     90 % 0.00 in
04:09 54.1 °F 50.6 °F 29.84 in Calm     88 % 0.00 in
04:14 53.9 °F 50.4 °F 29.83 in Calm     88 % 0.00 in
04:19 53.7 °F 50.2 °F 29.83 in Calm     88 % 0.00 in
04:24 53.6 °F 50.4 °F 29.83 in Calm     89 % 0.00 in
04:29 53.3 °F 49.8 °F 29.83 in Calm     88 % 0.00 in
04:34 53.1 °F 49.6 °F 29.84 in Calm     88 % 0.00 in
04:39 52.9 °F 49.7 °F 29.84 in Calm     89 % 0.00 in
04:44 52.8 °F 49.9 °F 29.83 in Calm     90 % 0.00 in
04:49 52.8 °F 50.2 °F 29.83 in Calm     91 % 0.00 in
04:54 53.0 °F 50.1 °F 29.83 in Calm     90 % 0.00 in
04:59 53.1 °F 49.9 °F 29.83 in Calm     89 % 0.00 in
05:04 52.8 °F 49.6 °F 29.83 in Calm     89 % 0.00 in
05:09 52.5 °F 49.4 °F 29.83 in Calm     89 % 0.00 in
05:14 52.2 °F 49.1 °F 29.84 in Calm     89 % 0.00 in
05:19 52.1 °F 49.0 °F 29.84 in Calm     89 % 0.00 in
05:24 52.2 °F 49.4 °F 29.84 in Calm     90 % 0.00 in
05:29 52.1 °F 49.3 °F 29.84 in Calm     90 % 0.00 in
05:34 52.0 °F 48.9 °F 29.84 in Calm     89 % 0.00 in
05:39 51.9 °F 49.1 °F 29.84 in Calm     90 % 0.00 in
05:44 51.8 °F 49.3 °F 29.84 in Calm     91 % 0.00 in
05:49 52.0 °F 49.5 °F 29.84 in Calm     91 % 0.00 in
05:54 52.2 °F 49.4 °F 29.84 in Calm     90 % 0.00 in
05:59 52.2 °F 49.4 °F 29.84 in Calm     90 % 0.00 in
06:04 52.1 °F 49.3 °F 29.84 in Calm     90 % 0.00 in
06:09 52.2 °F 49.4 °F 29.85 in Calm     90 % 0.00 in
06:14 52.3 °F 49.8 °F 29.85 in Calm     91 % 0.00 in
06:19 52.2 °F 49.4 °F 29.85 in Calm     90 % 0.00 in
06:24 52.1 °F 49.3 °F 29.85 in Calm     90 % 0.00 in
06:29 52.3 °F 49.5 °F 29.85 in Calm     90 % 0.00 in
06:34 52.3 °F 49.5 °F 29.85 in Calm     90 % 0.00 in
06:39 52.3 °F 49.5 °F 29.84 in Calm     90 % 0.00 in
06:44 52.7 °F 50.1 °F 29.85 in Calm     91 % 0.00 in
06:49 52.8 °F 50.2 °F 29.85 in Calm     91 % 0.00 in
06:55 52.9 °F 50.3 °F 29.85 in Calm     91 % 0.00 in
07:00 52.8 °F 50.2 °F 29.85 in Calm     91 % 0.00 in
07:05 52.4 °F 49.3 °F 29.85 in Calm     89 % 0.00 in
07:10 52.1 °F 49.3 °F 29.85 in Calm     90 % 0.00 in
07:15 51.9 °F 49.1 °F 29.85 in Calm     90 % 0.00 in
07:20 51.6 °F 48.8 °F 29.85 in Calm     90 % 0.00 in
07:24 51.6 °F 49.1 °F 29.85 in Calm     91 % 0.00 in
07:30 51.8 °F 49.5 °F 29.85 in Calm     92 % 0.00 in
07:35 51.9 °F 49.6 °F 29.85 in Calm     92 % 0.00 in
07:40 52.0 °F 49.7 °F 29.85 in Calm     92 % 0.00 in
07:45 52.2 °F 49.9 °F 29.85 in Calm     92 % 0.00 in
07:50 52.2 °F 49.9 °F 29.86 in Calm     92 % 0.00 in
07:55 52.3 °F 50.0 °F 29.86 in Calm     92 % 0.00 in
08:00 52.4 °F 50.1 °F 29.86 in Calm     92 % 0.00 in
08:05 52.6 °F 50.3 °F 29.86 in Calm     92 % 0.00 in
08:10 53.1 °F 50.5 °F 29.86 in Calm     91 % 0.00 in
08:16 53.7 °F 51.1 °F 29.86 in Calm     91 % 0.00 in
08:20 54.4 °F 51.5 °F 29.86 in Calm     90 % 0.00 in
08:25 55.1 °F 51.6 °F 29.86 in Calm     88 % 0.00 in
08:31 56.2 °F 52.4 °F 29.86 in Calm     87 % 0.00 in
08:35 58.2 °F 53.4 °F 29.86 in Calm     84 % 0.00 in
08:41 60.2 °F 53.7 °F 29.86 in Calm     79 % 0.00 in
08:46 61.6 °F 54.7 °F 29.86 in Calm     78 % 0.00 in
08:51 62.6 °F 53.4 °F 29.86 in Calm     72 % 0.00 in
08:56 63.2 °F 53.6 °F 29.86 in Calm     71 % 0.00 in
09:01 64.0 °F 53.6 °F 29.86 in Calm     69 % 0.00 in
09:06 64.8 °F 53.2 °F 29.86 in Calm     66 % 0.00 in
09:11 65.6 °F 53.5 °F 29.86 in SSE 1.2 mph 1.2 mph 65 % 0.00 in
09:16 66.0 °F 53.9 °F 29.86 in Calm     65 % 0.00 in
09:21 66.8 °F 53.4 °F 29.86 in SSE 1.2 mph   62 % 0.00 in
09:26 67.5 °F 54.5 °F 29.87 in Calm     63 % 0.00 in
09:31 68.4 °F 54.0 °F 29.87 in SE 1.2 mph 1.2 mph 60 % 0.00 in
09:36 68.4 °F 53.0 °F 29.87 in NW 1.2 mph 1.2 mph 58 % 0.00 in
09:41 68.3 °F 53.9 °F 29.87 in Calm     60 % 0.00 in
09:46 69.1 °F 54.2 °F 29.87 in SE 1.2 mph   59 % 0.00 in
09:51 69.7 °F 53.3 °F 29.87 in Calm     56 % 0.00 in
09:56 69.9 °F 53.5 °F 29.87 in ESE 1.0 mph   56 % 0.00 in
10:01 70.5 °F 54.0 °F 29.87 in NW 1.0 mph 1.0 mph 56 % 0.00 in
10:06 70.6 °F 53.1 °F 29.86 in Calm     54 % 0.00 in
10:11 70.7 °F 53.7 °F 29.86 in Calm     55 % 0.00 in
10:16 71.7 °F 54.2 °F 29.86 in Calm     54 % 0.00 in
10:21 72.2 °F 53.1 °F 29.86 in NW 1.2 mph   51 % 0.00 in
10:26 72.4 °F 52.7 °F 29.86 in Calm     50 % 0.00 in
10:31 72.7 °F 53.0 °F 29.86 in SE 1.2 mph   50 % 0.00 in
10:36 73.3 °F 54.1 °F 29.86 in SE 1.2 mph 1.2 mph 51 % 0.00 in
10:41 73.9 °F 53.0 °F 29.86 in Calm     48 % 0.00 in
10:46 74.0 °F 53.6 °F 29.86 in South 1.2 mph   49 % 0.00 in
10:51 74.6 °F 54.7 °F 29.86 in NNW 1.2 mph   50 % 0.00 in
10:56 74.9 °F 55.0 °F 29.86 in Calm     50 % 0.00 in
11:01 75.4 °F 54.9 °F 29.86 in Calm     49 % 0.00 in
11:06 75.8 °F 54.7 °F 29.86 in Calm     48 % 0.00 in
11:11 75.7 °F 54.6 °F 29.86 in South 2.3 mph 2.3 mph 48 % 0.00 in
11:16 76.0 °F 53.7 °F 29.85 in Calm   0.3 mph 46 % 0.00 in
11:21 76.0 °F 54.3 °F 29.85 in Calm     47 % 0.00 in
11:26 76.1 °F 53.8 °F 29.85 in Calm   0.1 mph 46 % 0.00 in
11:31 76.2 °F 53.3 °F 29.85 in WNW 1.2 mph   45 % 0.00 in
11:36 76.3 °F 54.0 °F 29.85 in NW 2.3 mph 2.3 mph 46 % 0.00 in
11:41 76.6 °F 54.3 °F 29.84 in NW 1.2 mph 1.2 mph 46 % 0.00 in
11:46 77.0 °F 55.8 °F 29.84 in Calm     48 % 0.00 in
11:51 77.9 °F 54.8 °F 29.84 in ESE 1.2 mph 1.2 mph 45 % 0.00 in
11:56 78.2 °F 55.7 °F 29.84 in Calm     46 % 0.00 in
12:01 78.6 °F 56.1 °F 29.84 in NW 2.0 mph 2.0 mph 46 % 0.00 in
12:06 78.6 °F 54.9 °F 29.84 in Calm     44 % 0.00 in
12:12 78.9 °F 55.8 °F 29.83 in NW 1.0 mph 1.0 mph 45 % 0.00 in
12:17 79.0 °F 55.8 °F 29.83 in WNW 2.3 mph 2.3 mph 45 % 0.00 in
12:22 79.2 °F 56.6 °F 29.83 in WNW 1.2 mph 1.2 mph 46 % 0.00 in
12:27 79.4 °F 55.6 °F 29.83 in Calm     44 % 0.00 in
12:32 79.6 °F 55.8 °F 29.82 in Calm     44 % 0.00 in
12:37 80.4 °F 56.5 °F 29.82 in Calm   0.2 mph 44 % 0.00 in
12:42 80.9 °F 56.9 °F 29.81 in NW 1.2 mph   44 % 0.00 in
12:47 80.8 °F 56.2 °F 29.81 in NW 2.3 mph 2.3 mph 43 % 0.00 in
12:52 80.9 °F 55.7 °F 29.81 in NW 3.5 mph 3.5 mph 42 % 0.00 in
12:57 80.9 °F 56.9 °F 29.81 in NNW 1.2 mph   44 % 0.00 in
13:02 81.1 °F 56.5 °F 29.80 in NW 1.2 mph 1.2 mph 43 % 0.00 in
13:07 81.4 °F 55.4 °F 29.80 in West 1.2 mph 1.2 mph 41 % 0.00 in
13:12 81.6 °F 56.9 °F 29.80 in NW 3.5 mph 3.5 mph 43 % 0.00 in
13:22 81.9 °F 56.6 °F 29.79 in NW 1.2 mph 1.2 mph 42 % 0.00 in
13:27 82.1 °F 55.4 °F 29.79 in SW 1.2 mph 1.2 mph 40 % 0.00 in
13:32 81.9 °F 55.9 °F 29.79 in Calm   0.1 mph 41 % 0.00 in
13:37 81.7 °F 55.7 °F 29.78 in NW 2.3 mph 2.3 mph 41 % 0.00 in
13:42 81.7 °F 57.0 °F 29.78 in WSW 1.2 mph 1.2 mph 43 % 0.00 in
13:47 81.8 °F 56.5 °F 29.78 in WNW 1.2 mph 1.2 mph 42 % 0.00 in
13:52 82.1 °F 56.1 °F 29.78 in NW 2.3 mph 2.3 mph 41 % 0.00 in
13:57 82.4 °F 56.3 °F 29.77 in NW 1.2 mph 1.2 mph 41 % 0.00 in
14:02 82.3 °F 55.6 °F 29.77 in NW 2.3 mph 2.3 mph 40 % 0.00 in
14:07 82.2 °F 56.2 °F 29.77 in NW 2.3 mph 2.3 mph 41 % 0.00 in
14:12 82.3 °F 56.2 °F 29.77 in NW 2.3 mph 2.3 mph 41 % 0.00 in
14:17 82.5 °F 56.4 °F 29.76 in WSW 1.2 mph 1.2 mph 41 % 0.00 in
14:22 82.7 °F 55.9 °F 29.76 in WNW 3.5 mph 3.5 mph 40 % 0.00 in
14:27 82.7 °F 55.9 °F 29.76 in WNW 3.5 mph 3.5 mph 40 % 0.00 in
14:32 82.5 °F 56.4 °F 29.76 in NW 3.5 mph 3.5 mph 41 % 0.00 in
14:37 82.6 °F 56.5 °F 29.76 in WNW 2.3 mph 2.3 mph 41 % 0.00 in
14:43 82.6 °F 56.5 °F 29.76 in WNW 2.0 mph 2.0 mph 41 % 0.00 in
14:47 82.4 °F 55.7 °F 29.76 in West 2.3 mph 2.3 mph 40 % 0.00 in
14:53 82.3 °F 56.2 °F 29.76 in WNW 1.2 mph   41 % 0.00 in
14:58 82.5 °F 58.4 °F 29.76 in WNW 3.0 mph 3.0 mph 44 % 0.00 in
15:03 82.3 °F 56.2 °F 29.76 in WNW 2.3 mph 2.3 mph 41 % 0.00 in
15:08 81.8 °F 56.5 °F 29.76 in NW 2.3 mph 2.3 mph 42 % 0.00 in
15:13 81.4 °F 56.8 °F 29.76 in NW 2.3 mph 2.3 mph 43 % 0.00 in
15:18 81.0 °F 55.7 °F 29.76 in WNW 3.5 mph 3.5 mph 42 % 0.00 in
15:23 80.8 °F 56.9 °F 29.76 in WNW 3.5 mph 3.5 mph 44 % 0.00 in
15:28 81.0 °F 56.4 °F 29.76 in NW 2.3 mph 2.3 mph 43 % 0.00 in
15:33 81.1 °F 56.5 °F 29.76 in North 3.5 mph 3.5 mph 43 % 0.00 in
15:38 81.1 °F 56.5 °F 29.77 in WNW 3.5 mph 3.5 mph 43 % 0.00 in
15:43 81.0 °F 57.0 °F 29.77 in WNW 1.2 mph 1.2 mph 44 % 0.00 in
15:48 80.8 °F 57.5 °F 29.76 in NW 1.2 mph 1.2 mph 45 % 0.00 in
15:53 80.6 °F 57.3 °F 29.76 in WNW 1.2 mph 1.2 mph 45 % 0.00 in
15:58 80.5 °F 57.8 °F 29.76 in WNW 1.2 mph 1.2 mph 46 % 0.00 in
16:03 80.3 °F 57.0 °F 29.76 in North 2.3 mph 2.3 mph 45 % 0.00 in
16:08 80.1 °F 57.5 °F 29.76 in WNW 1.2 mph 1.2 mph 46 % 0.00 in
16:13 79.9 °F 57.3 °F 29.76 in NW 2.3 mph 2.3 mph 46 % 0.00 in
16:19 79.7 °F 57.1 °F 29.76 in NW 1.2 mph 1.2 mph 46 % 0.00 in
16:26 79.4 °F 57.4 °F 29.76 in WNW 1.2 mph   47 % 0.00 in
16:31 79.3 °F 57.9 °F 29.76 in Calm     48 % 0.00 in
16:36 78.9 °F 58.1 °F 29.76 in Calm     49 % 0.00 in
16:41 78.5 °F 57.7 °F 29.76 in Calm     49 % 0.00 in
16:46 78.3 °F 58.1 °F 29.76 in Calm     50 % 0.00 in
16:51 78.0 °F 57.9 °F 29.76 in Calm     50 % 0.00 in
16:56 77.7 °F 58.1 °F 29.76 in Calm     51 % 0.00 in
17:01 77.4 °F 58.4 °F 29.75 in Calm     52 % 0.00 in
17:06 77.2 °F 58.7 °F 29.75 in Calm     53 % 0.00 in
17:11 77.0 °F 58.6 °F 29.75 in Calm     53 % 0.00 in
17:16 76.8 °F 58.9 °F 29.75 in Calm     54 % 0.00 in
17:21 76.4 °F 59.0 °F 29.76 in Calm     55 % 0.00 in
17:33 74.5 °F 60.2 °F 29.75 in Calm     61 % 0.00 in
17:38 73.9 °F 59.6 °F 29.75 in Calm     61 % 0.00 in
17:43 73.4 °F 59.6 °F 29.75 in Calm     62 % 0.00 in
17:48 72.9 °F 60.0 °F 29.75 in Calm     64 % 0.00 in
17:53 72.4 °F 60.4 °F 29.76 in Calm     66 % 0.00 in
17:58 71.8 °F 59.8 °F 29.76 in Calm     66 % 0.00 in
18:03 71.1 °F 59.2 °F 29.76 in Calm     66 % 0.00 in
18:08 70.6 °F 58.7 °F 29.76 in Calm     66 % 0.00 in
18:13 70.1 °F 58.6 °F 29.76 in Calm     67 % 0.00 in
18:18 69.8 °F 59.2 °F 29.76 in Calm     69 % 0.00 in
18:23 69.7 °F 59.5 °F 29.76 in Calm     70 % 0.00 in
18:28 69.5 °F 58.9 °F 29.77 in Calm     69 % 0.00 in
18:33 69.3 °F 58.7 °F 29.77 in Calm     69 % 0.00 in
18:38 69.1 °F 58.9 °F 29.77 in Calm     70 % 0.00 in
18:43 68.9 °F 58.7 °F 29.77 in Calm     70 % 0.00 in
18:49 68.7 °F 58.5 °F 29.77 in Calm     70 % 0.00 in
18:54 68.7 °F 58.9 °F 29.77 in Calm     71 % 0.00 in
18:59 68.7 °F 58.9 °F 29.78 in Calm     71 % 0.00 in
19:04 68.6 °F 58.4 °F 29.78 in Calm     70 % 0.00 in
19:09 68.4 °F 58.6 °F 29.78 in Calm     71 % 0.00 in
19:14 68.1 °F 58.3 °F 29.79 in Calm     71 % 0.00 in
19:19 67.9 °F 58.5 °F 29.79 in Calm     72 % 0.00 in
19:24 67.5 °F 58.5 °F 29.79 in Calm     73 % 0.00 in
19:29 67.1 °F 58.5 °F 29.79 in Calm     74 % 0.00 in
19:34 66.8 °F 58.6 °F 29.79 in Calm     75 % 0.00 in
19:39 66.4 °F 58.2 °F 29.80 in Calm     75 % 0.00 in
19:44 66.2 °F 58.4 °F 29.80 in Calm     76 % 0.00 in
19:49 66.3 °F 58.5 °F 29.80 in Calm     76 % 0.00 in
19:54 66.2 °F 58.0 °F 29.80 in Calm     75 % 0.00 in
19:59 66.4 °F 58.2 °F 29.80 in Calm     75 % 0.00 in
20:04 66.4 °F 57.9 °F 29.80 in Calm     74 % 0.00 in
20:09 66.4 °F 58.2 °F 29.80 in Calm     75 % 0.00 in
20:15 66.3 °F 58.9 °F 29.80 in Calm     77 % 0.00 in
20:20 66.1 °F 57.9 °F 29.80 in Calm     75 % 0.00 in
20:21 66.0 °F 58.2 °F 29.80 in Calm     76 % 0.00 in
20:23 66.0 °F 58.2 °F 29.80 in Calm     76 % 0.00 in
20:25 66.1 °F 59.0 °F 29.80 in Calm     78 % 0.00 in
20:30 66.2 °F 59.1 °F 29.80 in Calm     78 % 0.00 in
20:35 66.1 °F 57.9 °F 29.80 in Calm     75 % 0.00 in
20:40 66.3 °F 58.1 °F 29.80 in Calm     75 % 0.00 in
20:45 66.2 °F 58.4 °F 29.80 in Calm     76 % 0.00 in
20:50 66.3 °F 58.1 °F 29.80 in Calm     75 % 0.00 in
20:55 66.3 °F 58.1 °F 29.80 in Calm     75 % 0.00 in
21:00 66.3 °F 58.1 °F 29.80 in Calm     75 % 0.00 in
21:05 66.1 °F 58.7 °F 29.80 in Calm     77 % 0.00 in
21:11 65.8 °F 58.4 °F 29.80 in Calm     77 % 0.00 in
21:16 65.4 °F 58.7 °F 29.80 in Calm     79 % 0.00 in
21:21 65.1 °F 58.4 °F 29.80 in Calm     79 % 0.00 in
21:31 64.5 °F 58.5 °F 29.80 in Calm     81 % 0.00 in
21:36 64.4 °F 58.4 °F 29.80 in Calm     81 % 0.00 in
21:41 64.3 °F 58.3 °F 29.80 in Calm     81 % 0.00 in
21:46 64.2 °F 58.2 °F 29.80 in Calm     81 % 0.00 in
21:51 64.0 °F 58.1 °F 29.80 in Calm     81 % 0.00 in
21:56 64.0 °F 58.1 °F 29.80 in Calm     81 % 0.00 in
22:01 64.1 °F 58.1 °F 29.80 in Calm     81 % 0.00 in
22:06 64.2 °F 58.2 °F 29.80 in Calm     81 % 0.00 in
22:11 64.1 °F 58.1 °F 29.80 in Calm     81 % 0.00 in
22:16 64.0 °F 58.1 °F 29.80 in Calm     81 % 0.00 in
22:21 63.8 °F 57.9 °F 29.80 in Calm     81 % 0.00 in
22:26 63.8 °F 57.5 °F 29.80 in Calm     80 % 0.00 in
22:31 63.8 °F 57.5 °F 29.79 in Calm     80 % 0.00 in
22:36 63.9 °F 58.0 °F 29.80 in Calm     81 % 0.00 in
22:41 63.7 °F 57.8 °F 29.79 in Calm     81 % 0.00 in
22:46 63.4 °F 57.5 °F 29.80 in ESE 1.2 mph 1.2 mph 81 % 0.00 in
22:51 63.0 °F 57.1 °F 29.80 in Calm     81 % 0.00 in
22:56 62.8 °F 57.2 °F 29.80 in Calm     82 % 0.00 in
23:01 62.7 °F 57.1 °F 29.80 in Calm     82 % 0.00 in
23:06 62.7 °F 57.5 °F 29.80 in Calm     83 % 0.00 in
23:11 62.6 °F 57.4 °F 29.80 in Calm     83 % 0.00 in
23:16 62.2 °F 57.3 °F 29.80 in SE 1.2 mph   84 % 0.00 in
23:21 62.0 °F 57.4 °F 29.80 in Calm     85 % 0.00 in
23:26 61.9 °F 57.3 °F 29.79 in Calm     85 % 0.00 in
23:31 62.0 °F 57.4 °F 29.79 in Calm     85 % 0.00 in
23:36 62.0 °F 57.4 °F 29.80 in Calm     85 % 0.00 in
23:41 62.0 °F 57.4 °F 29.80 in Calm     85 % 0.00 in
23:46 61.9 °F 57.3 °F 29.80 in Calm     85 % 0.00 in
23:51 62.1 °F 57.2 °F 29.79 in Calm     84 % 0.00 in
23:56 62.2 °F 57.3 °F 29.79 in Calm     84 % 0.00 in
Park Place, Exeter, Tulare County, California, USA
Compliments of Weather Underground - 2.75 mb